sensor_id;sensor_type;location;lat;lon;timestamp;P1;durP1;ratioP1;P2;durP2;ratioP2
76818;SDS011;65772;51.096;17.006;2022-12-26T00:01:59;17.50;;;8.40;;
76818;SDS011;65772;51.096;17.006;2022-12-26T00:04:30;19.00;;;9.10;;
76818;SDS011;65772;51.096;17.006;2022-12-26T00:07:19;20.50;;;8.80;;
76818;SDS011;65772;51.096;17.006;2022-12-26T00:09:50;18.20;;;8.30;;
76818;SDS011;65772;51.096;17.006;2022-12-26T00:12:20;19.80;;;8.70;;
76818;SDS011;65772;51.096;17.006;2022-12-26T00:14:51;17.80;;;9.00;;
76818;SDS011;65772;51.096;17.006;2022-12-26T00:17:21;17.90;;;8.90;;
76818;SDS011;65772;51.096;17.006;2022-12-26T00:19:52;18.40;;;8.70;;
76818;SDS011;65772;51.096;17.006;2022-12-26T00:22:22;18.00;;;7.40;;
76818;SDS011;65772;51.096;17.006;2022-12-26T00:24:53;15.60;;;7.00;;
76818;SDS011;65772;51.096;17.006;2022-12-26T00:27:23;16.60;;;7.10;;
76818;SDS011;65772;51.096;17.006;2022-12-26T00:29:54;17.50;;;8.40;;
76818;SDS011;65772;51.096;17.006;2022-12-26T00:32:24;18.10;;;8.00;;
76818;SDS011;65772;51.096;17.006;2022-12-26T00:34:55;17.60;;;7.40;;
76818;SDS011;65772;51.096;17.006;2022-12-26T00:37:25;18.40;;;7.60;;
76818;SDS011;65772;51.096;17.006;2022-12-26T00:39:56;19.50;;;8.40;;
76818;SDS011;65772;51.096;17.006;2022-12-26T00:42:26;16.40;;;7.90;;
76818;SDS011;65772;51.096;17.006;2022-12-26T00:44:57;16.90;;;8.90;;
76818;SDS011;65772;51.096;17.006;2022-12-26T00:47:27;18.50;;;8.70;;
76818;SDS011;65772;51.096;17.006;2022-12-26T00:49:58;14.90;;;7.80;;
76818;SDS011;65772;51.096;17.006;2022-12-26T00:52:41;16.70;;;8.70;;
76818;SDS011;65772;51.096;17.006;2022-12-26T00:55:12;16.10;;;8.00;;
76818;SDS011;65772;51.096;17.006;2022-12-26T00:57:42;14.20;;;7.70;;
76818;SDS011;65772;51.096;17.006;2022-12-26T01:00:14;15.20;;;7.40;;
76818;SDS011;65772;51.096;17.006;2022-12-26T01:02:45;19.70;;;9.00;;
76818;SDS011;65772;51.096;17.006;2022-12-26T01:05:16;17.90;;;8.70;;
76818;SDS011;65772;51.096;17.006;2022-12-26T01:07:47;16.00;;;7.60;;
76818;SDS011;65772;51.096;17.006;2022-12-26T01:10:40;16.50;;;8.10;;
76818;SDS011;65772;51.096;17.006;2022-12-26T01:13:11;14.40;;;7.60;;
76818;SDS011;65772;51.096;17.006;2022-12-26T01:15:47;17.80;;;8.60;;
76818;SDS011;65772;51.096;17.006;2022-12-26T01:18:18;16.00;;;8.00;;
76818;SDS011;65772;51.096;17.006;2022-12-26T01:20:49;15.80;;;8.10;;
76818;SDS011;65772;51.096;17.006;2022-12-26T01:23:20;17.80;;;8.50;;
76818;SDS011;65772;51.096;17.006;2022-12-26T01:25:50;18.50;;;8.80;;
76818;SDS011;65772;51.096;17.006;2022-12-26T01:28:41;17.40;;;8.50;;
76818;SDS011;65772;51.096;17.006;2022-12-26T01:31:11;15.20;;;6.90;;
76818;SDS011;65772;51.096;17.006;2022-12-26T01:33:42;15.00;;;7.20;;
76818;SDS011;65772;51.096;17.006;2022-12-26T01:36:12;14.80;;;7.70;;
76818;SDS011;65772;51.096;17.006;2022-12-26T01:38:43;18.20;;;7.50;;
76818;SDS011;65772;51.096;17.006;2022-12-26T01:41:14;16.20;;;7.70;;
76818;SDS011;65772;51.096;17.006;2022-12-26T01:43:51;17.30;;;8.30;;
76818;SDS011;65772;51.096;17.006;2022-12-26T01:46:25;16.30;;;7.90;;
76818;SDS011;65772;51.096;17.006;2022-12-26T01:49:01;19.00;;;7.70;;
76818;SDS011;65772;51.096;17.006;2022-12-26T01:51:42;16.00;;;7.80;;
76818;SDS011;65772;51.096;17.006;2022-12-26T01:54:16;15.50;;;8.40;;
76818;SDS011;65772;51.096;17.006;2022-12-26T01:57:10;16.20;;;7.90;;
76818;SDS011;65772;51.096;17.006;2022-12-26T01:59:44;17.20;;;8.30;;
76818;SDS011;65772;51.096;17.006;2022-12-26T02:02:17;18.50;;;8.30;;
76818;SDS011;65772;51.096;17.006;2022-12-26T02:04:50;14.00;;;6.70;;
76818;SDS011;65772;51.096;17.006;2022-12-26T02:07:41;15.10;;;6.80;;
76818;SDS011;65772;51.096;17.006;2022-12-26T02:10:14;15.90;;;7.20;;
76818;SDS011;65772;51.096;17.006;2022-12-26T02:12:51;19.10;;;8.10;;
76818;SDS011;65772;51.096;17.006;2022-12-26T02:15:22;16.50;;;8.50;;
76818;SDS011;65772;51.096;17.006;2022-12-26T02:17:53;15.60;;;7.90;;
76818;SDS011;65772;51.096;17.006;2022-12-26T02:20:24;18.80;;;8.70;;
76818;SDS011;65772;51.096;17.006;2022-12-26T02:23:12;13.80;;;7.60;;
76818;SDS011;65772;51.096;17.006;2022-12-26T02:32:06;14.20;;;7.40;;
76818;SDS011;65772;51.096;17.006;2022-12-26T02:34:48;15.50;;;7.90;;
76818;SDS011;65772;51.096;17.006;2022-12-26T02:37:27;21.10;;;8.50;;
76818;SDS011;65772;51.096;17.006;2022-12-26T02:40:14;16.50;;;8.20;;
76818;SDS011;65772;51.096;17.006;2022-12-26T02:42:57;17.00;;;7.80;;
76818;SDS011;65772;51.096;17.006;2022-12-26T02:48:28;14.40;;;7.80;;
76818;SDS011;65772;51.096;17.006;2022-12-26T02:54:01;15.00;;;6.90;;
76818;SDS011;65772;51.096;17.006;2022-12-26T02:57:01;12.90;;;6.90;;
76818;SDS011;65772;51.096;17.006;2022-12-26T02:59:53;13.90;;;7.00;;
76818;SDS011;65772;51.096;17.006;2022-12-26T03:02:48;14.90;;;6.70;;
76818;SDS011;65772;51.096;17.006;2022-12-26T03:05:41;11.70;;;6.50;;
76818;SDS011;65772;51.096;17.006;2022-12-26T03:08:34;12.10;;;6.80;;
76818;SDS011;65772;51.096;17.006;2022-12-26T03:11:27;12.10;;;6.70;;
76818;SDS011;65772;51.096;17.006;2022-12-26T03:14:20;13.60;;;7.10;;
76818;SDS011;65772;51.096;17.006;2022-12-26T03:16:55;13.50;;;7.10;;
76818;SDS011;65772;51.096;17.006;2022-12-26T03:19:48;14.70;;;7.20;;
76818;SDS011;65772;51.096;17.006;2022-12-26T03:22:36;13.90;;;8.00;;
76818;SDS011;65772;51.096;17.006;2022-12-26T03:25:12;14.00;;;7.20;;
76818;SDS011;65772;51.096;17.006;2022-12-26T03:28:05;12.60;;;6.30;;
76818;SDS011;65772;51.096;17.006;2022-12-26T03:30:40;13.50;;;6.90;;
76818;SDS011;65772;51.096;17.006;2022-12-26T03:33:18;12.30;;;6.40;;
76818;SDS011;65772;51.096;17.006;2022-12-26T03:36:12;14.20;;;7.10;;
76818;SDS011;65772;51.096;17.006;2022-12-26T03:38:47;13.00;;;6.60;;
76818;SDS011;65772;51.096;17.006;2022-12-26T03:41:35;12.70;;;7.00;;
76818;SDS011;65772;51.096;17.006;2022-12-26T03:44:34;14.20;;;7.20;;
76818;SDS011;65772;51.096;17.006;2022-12-26T03:47:31;12.80;;;6.90;;
76818;SDS011;65772;51.096;17.006;2022-12-26T03:50:29;12.60;;;7.10;;
76818;SDS011;65772;51.096;17.006;2022-12-26T03:53:23;12.80;;;6.50;;
76818;SDS011;65772;51.096;17.006;2022-12-26T03:56:29;13.20;;;6.20;;
76818;SDS011;65772;51.096;17.006;2022-12-26T03:59:26;11.90;;;6.10;;
76818;SDS011;65772;51.096;17.006;2022-12-26T04:02:20;14.00;;;7.10;;
76818;SDS011;65772;51.096;17.006;2022-12-26T04:05:10;9.80;;;5.70;;
76818;SDS011;65772;51.096;17.006;2022-12-26T04:08:04;9.30;;;5.40;;
76818;SDS011;65772;51.096;17.006;2022-12-26T04:10:58;9.20;;;5.70;;
76818;SDS011;65772;51.096;17.006;2022-12-26T04:13:52;11.00;;;5.30;;
76818;SDS011;65772;51.096;17.006;2022-12-26T04:16:46;12.40;;;6.10;;
76818;SDS011;65772;51.096;17.006;2022-12-26T04:19:43;9.50;;;5.90;;
76818;SDS011;65772;51.096;17.006;2022-12-26T04:22:29;12.60;;;6.80;;
76818;SDS011;65772;51.096;17.006;2022-12-26T04:25:29;11.30;;;5.90;;
76818;SDS011;65772;51.096;17.006;2022-12-26T04:28:24;9.70;;;5.80;;
76818;SDS011;65772;51.096;17.006;2022-12-26T04:31:14;11.80;;;5.90;;
76818;SDS011;65772;51.096;17.006;2022-12-26T04:34:09;9.60;;;5.50;;
76818;SDS011;65772;51.096;17.006;2022-12-26T04:37:04;9.80;;;5.40;;
76818;SDS011;65772;51.096;17.006;2022-12-26T04:40:00;8.20;;;4.70;;
76818;SDS011;65772;51.096;17.006;2022-12-26T04:42:51;8.10;;;5.00;;
76818;SDS011;65772;51.096;17.006;2022-12-26T04:46:02;9.60;;;4.80;;
76818;SDS011;65772;51.096;17.006;2022-12-26T04:48:33;7.90;;;4.30;;
76818;SDS011;65772;51.096;17.006;2022-12-26T04:51:29;10.10;;;4.40;;
76818;SDS011;65772;51.096;17.006;2022-12-26T04:54:00;9.20;;;4.90;;
76818;SDS011;65772;51.096;17.006;2022-12-26T04:56:30;7.80;;;4.60;;
76818;SDS011;65772;51.096;17.006;2022-12-26T04:59:01;10.20;;;5.10;;
76818;SDS011;65772;51.096;17.006;2022-12-26T05:01:31;9.80;;;5.50;;
76818;SDS011;65772;51.096;17.006;2022-12-26T05:04:20;11.80;;;6.00;;
76818;SDS011;65772;51.096;17.006;2022-12-26T05:07:10;10.60;;;5.60;;
76818;SDS011;65772;51.096;17.006;2022-12-26T05:10:03;9.20;;;5.40;;
76818;SDS011;65772;51.096;17.006;2022-12-26T05:12:36;11.30;;;6.00;;
76818;SDS011;65772;51.096;17.006;2022-12-26T05:15:08;10.00;;;4.30;;
76818;SDS011;65772;51.096;17.006;2022-12-26T05:17:39;10.30;;;5.70;;
76818;SDS011;65772;51.096;17.006;2022-12-26T05:20:27;9.60;;;5.70;;
76818;SDS011;65772;51.096;17.006;2022-12-26T05:23:18;9.20;;;5.00;;
76818;SDS011;65772;51.096;17.006;2022-12-26T05:26:09;11.00;;;5.70;;
76818;SDS011;65772;51.096;17.006;2022-12-26T05:29:02;9.30;;;4.60;;
76818;SDS011;65772;51.096;17.006;2022-12-26T05:31:33;8.90;;;5.10;;
76818;SDS011;65772;51.096;17.006;2022-12-26T05:34:04;7.40;;;4.50;;
76818;SDS011;65772;51.096;17.006;2022-12-26T05:36:38;10.20;;;5.70;;
76818;SDS011;65772;51.096;17.006;2022-12-26T05:39:11;10.90;;;5.40;;
76818;SDS011;65772;51.096;17.006;2022-12-26T05:41:42;8.90;;;5.10;;
76818;SDS011;65772;51.096;17.006;2022-12-26T05:44:13;7.80;;;4.80;;
76818;SDS011;65772;51.096;17.006;2022-12-26T05:46:44;9.00;;;5.20;;
76818;SDS011;65772;51.096;17.006;2022-12-26T05:49:15;9.20;;;5.10;;
76818;SDS011;65772;51.096;17.006;2022-12-26T05:51:46;8.50;;;5.00;;
76818;SDS011;65772;51.096;17.006;2022-12-26T05:56:47;8.30;;;4.90;;
76818;SDS011;65772;51.096;17.006;2022-12-26T05:59:17;7.70;;;4.60;;
76818;SDS011;65772;51.096;17.006;2022-12-26T06:01:48;8.60;;;4.80;;
76818;SDS011;65772;51.096;17.006;2022-12-26T06:04:19;7.20;;;4.30;;
76818;SDS011;65772;51.096;17.006;2022-12-26T06:06:49;7.80;;;4.60;;
76818;SDS011;65772;51.096;17.006;2022-12-26T06:09:22;7.60;;;4.00;;
76818;SDS011;65772;51.096;17.006;2022-12-26T06:11:53;6.50;;;4.10;;
76818;SDS011;65772;51.096;17.006;2022-12-26T06:14:24;7.10;;;4.30;;
76818;SDS011;65772;51.096;17.006;2022-12-26T06:16:54;8.30;;;4.50;;
76818;SDS011;65772;51.096;17.006;2022-12-26T06:19:25;8.50;;;4.30;;
76818;SDS011;65772;51.096;17.006;2022-12-26T06:21:56;9.20;;;4.50;;
76818;SDS011;65772;51.096;17.006;2022-12-26T06:24:26;9.30;;;4.60;;
76818;SDS011;65772;51.096;17.006;2022-12-26T06:26:56;9.20;;;4.60;;
76818;SDS011;65772;51.096;17.006;2022-12-26T06:29:27;8.10;;;4.20;;
76818;SDS011;65772;51.096;17.006;2022-12-26T06:31:58;8.20;;;4.90;;
76818;SDS011;65772;51.096;17.006;2022-12-26T06:34:29;7.40;;;4.70;;
76818;SDS011;65772;51.096;17.006;2022-12-26T06:37:00;9.10;;;4.80;;
76818;SDS011;65772;51.096;17.006;2022-12-26T06:39:30;8.30;;;4.40;;
76818;SDS011;65772;51.096;17.006;2022-12-26T06:42:01;5.90;;;3.70;;
76818;SDS011;65772;51.096;17.006;2022-12-26T06:44:32;8.10;;;3.90;;
76818;SDS011;65772;51.096;17.006;2022-12-26T06:47:02;8.80;;;4.80;;
76818;SDS011;65772;51.096;17.006;2022-12-26T06:49:33;7.00;;;4.30;;
76818;SDS011;65772;51.096;17.006;2022-12-26T06:52:04;7.70;;;4.50;;
76818;SDS011;65772;51.096;17.006;2022-12-26T06:54:35;9.50;;;4.30;;
76818;SDS011;65772;51.096;17.006;2022-12-26T06:57:05;8.70;;;4.70;;
76818;SDS011;65772;51.096;17.006;2022-12-26T06:59:36;8.20;;;4.80;;
76818;SDS011;65772;51.096;17.006;2022-12-26T07:02:07;9.70;;;5.60;;
76818;SDS011;65772;51.096;17.006;2022-12-26T07:04:40;7.70;;;4.70;;
76818;SDS011;65772;51.096;17.006;2022-12-26T07:07:10;8.20;;;4.60;;
76818;SDS011;65772;51.096;17.006;2022-12-26T07:09:41;8.10;;;4.50;;
76818;SDS011;65772;51.096;17.006;2022-12-26T07:12:11;8.70;;;4.90;;
76818;SDS011;65772;51.096;17.006;2022-12-26T07:14:42;8.10;;;4.80;;
76818;SDS011;65772;51.096;17.006;2022-12-26T07:17:12;8.90;;;4.70;;
76818;SDS011;65772;51.096;17.006;2022-12-26T07:19:43;9.90;;;4.60;;
76818;SDS011;65772;51.096;17.006;2022-12-26T07:22:13;10.20;;;5.10;;
76818;SDS011;65772;51.096;17.006;2022-12-26T07:24:44;8.30;;;4.80;;
76818;SDS011;65772;51.096;17.006;2022-12-26T07:27:14;8.80;;;4.90;;
76818;SDS011;65772;51.096;17.006;2022-12-26T07:29:46;8.70;;;5.00;;
76818;SDS011;65772;51.096;17.006;2022-12-26T07:32:17;8.90;;;4.70;;
76818;SDS011;65772;51.096;17.006;2022-12-26T07:34:47;8.40;;;5.60;;
76818;SDS011;65772;51.096;17.006;2022-12-26T07:37:18;7.70;;;5.00;;
76818;SDS011;65772;51.096;17.006;2022-12-26T07:39:48;9.80;;;5.30;;
76818;SDS011;65772;51.096;17.006;2022-12-26T07:42:25;8.60;;;5.00;;
76818;SDS011;65772;51.096;17.006;2022-12-26T07:44:58;7.80;;;5.00;;
76818;SDS011;65772;51.096;17.006;2022-12-26T07:47:28;8.00;;;4.80;;
76818;SDS011;65772;51.096;17.006;2022-12-26T07:49:59;7.50;;;4.70;;
76818;SDS011;65772;51.096;17.006;2022-12-26T07:52:29;8.00;;;4.10;;
76818;SDS011;65772;51.096;17.006;2022-12-26T07:55:00;8.20;;;4.50;;
76818;SDS011;65772;51.096;17.006;2022-12-26T07:57:31;8.30;;;4.40;;
76818;SDS011;65772;51.096;17.006;2022-12-26T08:00:17;6.40;;;4.10;;
76818;SDS011;65772;51.096;17.006;2022-12-26T08:02:48;9.70;;;4.60;;
76818;SDS011;65772;51.096;17.006;2022-12-26T08:05:21;8.50;;;4.90;;
76818;SDS011;65772;51.096;17.006;2022-12-26T08:07:51;7.30;;;4.80;;
76818;SDS011;65772;51.096;17.006;2022-12-26T08:10:22;7.20;;;4.40;;
76818;SDS011;65772;51.096;17.006;2022-12-26T08:12:53;6.90;;;4.00;;
76818;SDS011;65772;51.096;17.006;2022-12-26T08:15:23;10.00;;;4.80;;
76818;SDS011;65772;51.096;17.006;2022-12-26T08:17:54;7.40;;;4.40;;
76818;SDS011;65772;51.096;17.006;2022-12-26T08:20:25;8.40;;;4.30;;
76818;SDS011;65772;51.096;17.006;2022-12-26T08:22:55;7.90;;;4.80;;
76818;SDS011;65772;51.096;17.006;2022-12-26T08:27:56;6.30;;;3.90;;
76818;SDS011;65772;51.096;17.006;2022-12-26T08:30:28;7.90;;;5.10;;
76818;SDS011;65772;51.096;17.006;2022-12-26T08:32:58;6.60;;;4.30;;
76818;SDS011;65772;51.096;17.006;2022-12-26T08:35:29;5.80;;;3.70;;
76818;SDS011;65772;51.096;17.006;2022-12-26T08:38:00;9.80;;;3.70;;
76818;SDS011;65772;51.096;17.006;2022-12-26T08:40:31;9.10;;;4.20;;
76818;SDS011;65772;51.096;17.006;2022-12-26T08:43:11;6.80;;;4.20;;
76818;SDS011;65772;51.096;17.006;2022-12-26T08:46:02;6.30;;;4.00;;
76818;SDS011;65772;51.096;17.006;2022-12-26T08:48:36;6.80;;;4.40;;
76818;SDS011;65772;51.096;17.006;2022-12-26T08:51:08;7.00;;;4.70;;
76818;SDS011;65772;51.096;17.006;2022-12-26T08:53:42;7.40;;;4.10;;
76818;SDS011;65772;51.096;17.006;2022-12-26T08:56:16;8.60;;;5.20;;
76818;SDS011;65772;51.096;17.006;2022-12-26T08:58:48;8.20;;;4.60;;
76818;SDS011;65772;51.096;17.006;2022-12-26T09:01:19;7.40;;;4.50;;
76818;SDS011;65772;51.096;17.006;2022-12-26T09:03:52;9.00;;;4.70;;
76818;SDS011;65772;51.096;17.006;2022-12-26T09:06:23;7.00;;;4.90;;
76818;SDS011;65772;51.096;17.006;2022-12-26T09:08:54;7.80;;;4.80;;
76818;SDS011;65772;51.096;17.006;2022-12-26T09:11:26;8.90;;;4.70;;
76818;SDS011;65772;51.096;17.006;2022-12-26T09:13:58;9.50;;;5.00;;
76818;SDS011;65772;51.096;17.006;2022-12-26T09:19:08;12.00;;;5.00;;
76818;SDS011;65772;51.096;17.006;2022-12-26T09:21:40;12.30;;;6.30;;
76818;SDS011;65772;51.096;17.006;2022-12-26T09:24:11;11.20;;;5.10;;
76818;SDS011;65772;51.096;17.006;2022-12-26T09:26:43;12.30;;;4.90;;
76818;SDS011;65772;51.096;17.006;2022-12-26T09:29:14;9.50;;;4.90;;
76818;SDS011;65772;51.096;17.006;2022-12-26T09:31:44;8.90;;;5.10;;
76818;SDS011;65772;51.096;17.006;2022-12-26T09:34:15;8.40;;;4.60;;
76818;SDS011;65772;51.096;17.006;2022-12-26T09:36:45;10.00;;;5.50;;
76818;SDS011;65772;51.096;17.006;2022-12-26T09:39:16;10.20;;;5.20;;
76818;SDS011;65772;51.096;17.006;2022-12-26T09:41:58;9.40;;;4.80;;
76818;SDS011;65772;51.096;17.006;2022-12-26T09:44:39;9.70;;;5.70;;
76818;SDS011;65772;51.096;17.006;2022-12-26T09:47:30;9.80;;;5.30;;
76818;SDS011;65772;51.096;17.006;2022-12-26T09:50:08;7.40;;;4.60;;
76818;SDS011;65772;51.096;17.006;2022-12-26T09:52:42;9.00;;;4.90;;
76818;SDS011;65772;51.096;17.006;2022-12-26T09:58:09;9.10;;;4.80;;
76818;SDS011;65772;51.096;17.006;2022-12-26T10:00:49;7.90;;;4.40;;
76818;SDS011;65772;51.096;17.006;2022-12-26T10:03:23;7.00;;;3.70;;
76818;SDS011;65772;51.096;17.006;2022-12-26T10:06:08;7.50;;;4.20;;
76818;SDS011;65772;51.096;17.006;2022-12-26T10:14:43;10.00;;;4.80;;
76818;SDS011;65772;51.096;17.006;2022-12-26T10:17:22;8.30;;;5.10;;
76818;SDS011;65772;51.096;17.006;2022-12-26T10:20:02;7.80;;;4.70;;
76818;SDS011;65772;51.096;17.006;2022-12-26T10:25:50;8.00;;;4.90;;
76818;SDS011;65772;51.096;17.006;2022-12-26T10:28:27;8.20;;;4.80;;
76818;SDS011;65772;51.096;17.006;2022-12-26T10:33:38;7.90;;;4.20;;
76818;SDS011;65772;51.096;17.006;2022-12-26T10:36:16;8.20;;;4.40;;
76818;SDS011;65772;51.096;17.006;2022-12-26T10:38:54;8.30;;;4.80;;
76818;SDS011;65772;51.096;17.006;2022-12-26T10:41:30;7.80;;;4.90;;
76818;SDS011;65772;51.096;17.006;2022-12-26T10:44:07;8.50;;;4.60;;
76818;SDS011;65772;51.096;17.006;2022-12-26T10:46:50;7.20;;;4.70;;
76818;SDS011;65772;51.096;17.006;2022-12-26T10:49:29;12.20;;;7.10;;
76818;SDS011;65772;51.096;17.006;2022-12-26T10:52:00;8.60;;;4.90;;
76818;SDS011;65772;51.096;17.006;2022-12-26T10:54:31;8.60;;;4.60;;
76818;SDS011;65772;51.096;17.006;2022-12-26T10:57:02;6.70;;;4.30;;
76818;SDS011;65772;51.096;17.006;2022-12-26T10:59:43;7.30;;;4.20;;
76818;SDS011;65772;51.096;17.006;2022-12-26T11:02:22;8.10;;;4.40;;
76818;SDS011;65772;51.096;17.006;2022-12-26T11:04:59;7.50;;;4.50;;
76818;SDS011;65772;51.096;17.006;2022-12-26T11:07:53;10.10;;;6.90;;
76818;SDS011;65772;51.096;17.006;2022-12-26T11:10:33;7.90;;;4.60;;
76818;SDS011;65772;51.096;17.006;2022-12-26T11:13:05;8.90;;;4.70;;
76818;SDS011;65772;51.096;17.006;2022-12-26T11:15:46;8.30;;;4.40;;
76818;SDS011;65772;51.096;17.006;2022-12-26T11:18:21;8.70;;;4.60;;
76818;SDS011;65772;51.096;17.006;2022-12-26T11:21:10;9.00;;;4.80;;
76818;SDS011;65772;51.096;17.006;2022-12-26T11:23:42;8.60;;;5.00;;
76818;SDS011;65772;51.096;17.006;2022-12-26T11:26:19;8.20;;;5.10;;
76818;SDS011;65772;51.096;17.006;2022-12-26T11:29:05;6.90;;;4.70;;
76818;SDS011;65772;51.096;17.006;2022-12-26T11:31:40;10.00;;;4.90;;
76818;SDS011;65772;51.096;17.006;2022-12-26T11:34:25;7.80;;;4.90;;
76818;SDS011;65772;51.096;17.006;2022-12-26T11:37:01;8.10;;;4.10;;
76818;SDS011;65772;51.096;17.006;2022-12-26T11:39:35;9.00;;;4.80;;
76818;SDS011;65772;51.096;17.006;2022-12-26T11:42:11;8.80;;;4.70;;
76818;SDS011;65772;51.096;17.006;2022-12-26T11:44:48;6.40;;;3.60;;
76818;SDS011;65772;51.096;17.006;2022-12-26T11:47:22;7.20;;;4.40;;
76818;SDS011;65772;51.096;17.006;2022-12-26T11:49:58;9.20;;;4.40;;
76818;SDS011;65772;51.096;17.006;2022-12-26T11:52:32;7.60;;;4.80;;
76818;SDS011;65772;51.096;17.006;2022-12-26T11:58:05;7.80;;;4.60;;
76818;SDS011;65772;51.096;17.006;2022-12-26T12:03:35;11.50;;;7.20;;
76818;SDS011;65772;51.096;17.006;2022-12-26T12:06:25;7.20;;;4.50;;
76818;SDS011;65772;51.096;17.006;2022-12-26T12:09:04;8.10;;;4.70;;
76818;SDS011;65772;51.096;17.006;2022-12-26T12:11:44;7.10;;;4.40;;
76818;SDS011;65772;51.096;17.006;2022-12-26T12:14:30;6.20;;;3.70;;
76818;SDS011;65772;51.096;17.006;2022-12-26T12:17:20;6.30;;;3.50;;
76818;SDS011;65772;51.096;17.006;2022-12-26T12:20:00;6.80;;;3.40;;
76818;SDS011;65772;51.096;17.006;2022-12-26T12:25:48;7.60;;;4.30;;
76818;SDS011;65772;51.096;17.006;2022-12-26T12:28:55;7.80;;;4.30;;
76818;SDS011;65772;51.096;17.006;2022-12-26T12:31:45;7.80;;;3.90;;
76818;SDS011;65772;51.096;17.006;2022-12-26T12:34:30;7.40;;;4.30;;
76818;SDS011;65772;51.096;17.006;2022-12-26T12:37:15;7.60;;;4.40;;
76818;SDS011;65772;51.096;17.006;2022-12-26T12:39:57;7.70;;;4.10;;
76818;SDS011;65772;51.096;17.006;2022-12-26T12:42:36;7.00;;;4.00;;
76818;SDS011;65772;51.096;17.006;2022-12-26T12:45:19;7.80;;;4.40;;
76818;SDS011;65772;51.096;17.006;2022-12-26T12:48:01;8.70;;;4.90;;
76818;SDS011;65772;51.096;17.006;2022-12-26T12:50:41;9.30;;;5.00;;
76818;SDS011;65772;51.096;17.006;2022-12-26T12:53:29;8.60;;;4.30;;
76818;SDS011;65772;51.096;17.006;2022-12-26T12:56:14;7.90;;;4.50;;
76818;SDS011;65772;51.096;17.006;2022-12-26T12:58:55;7.10;;;4.20;;
76818;SDS011;65772;51.096;17.006;2022-12-26T13:04:04;8.40;;;4.00;;
76818;SDS011;65772;51.096;17.006;2022-12-26T13:06:39;6.60;;;3.90;;
76818;SDS011;65772;51.096;17.006;2022-12-26T13:09:21;7.20;;;3.90;;
76818;SDS011;65772;51.096;17.006;2022-12-26T13:11:56;6.40;;;3.80;;
76818;SDS011;65772;51.096;17.006;2022-12-26T13:14:29;7.40;;;4.30;;
76818;SDS011;65772;51.096;17.006;2022-12-26T13:17:04;9.00;;;5.10;;
76818;SDS011;65772;51.096;17.006;2022-12-26T13:19:39;6.80;;;4.10;;
76818;SDS011;65772;51.096;17.006;2022-12-26T13:22:21;8.30;;;4.10;;
76818;SDS011;65772;51.096;17.006;2022-12-26T13:24:55;6.50;;;3.80;;
76818;SDS011;65772;51.096;17.006;2022-12-26T13:27:29;7.50;;;3.70;;
76818;SDS011;65772;51.096;17.006;2022-12-26T13:30:05;5.90;;;3.10;;
76818;SDS011;65772;51.096;17.006;2022-12-26T13:32:43;6.90;;;3.80;;
76818;SDS011;65772;51.096;17.006;2022-12-26T13:38:20;7.10;;;3.70;;
76818;SDS011;65772;51.096;17.006;2022-12-26T13:40:55;8.70;;;4.60;;
76818;SDS011;65772;51.096;17.006;2022-12-26T13:44:03;6.80;;;3.90;;
76818;SDS011;65772;51.096;17.006;2022-12-26T13:46:37;9.50;;;4.50;;
76818;SDS011;65772;51.096;17.006;2022-12-26T13:49:28;7.10;;;3.60;;
76818;SDS011;65772;51.096;17.006;2022-12-26T13:55:26;7.60;;;4.40;;
76818;SDS011;65772;51.096;17.006;2022-12-26T13:58:15;8.30;;;3.90;;
76818;SDS011;65772;51.096;17.006;2022-12-26T14:00:59;8.10;;;4.00;;
76818;SDS011;65772;51.096;17.006;2022-12-26T14:03:43;6.70;;;3.70;;
76818;SDS011;65772;51.096;17.006;2022-12-26T14:06:33;8.30;;;4.10;;
76818;SDS011;65772;51.096;17.006;2022-12-26T14:09:16;7.20;;;4.10;;
76818;SDS011;65772;51.096;17.006;2022-12-26T14:12:07;7.70;;;4.10;;
76818;SDS011;65772;51.096;17.006;2022-12-26T14:15:02;8.50;;;4.60;;
76818;SDS011;65772;51.096;17.006;2022-12-26T14:17:50;9.60;;;4.80;;
76818;SDS011;65772;51.096;17.006;2022-12-26T14:20:37;7.40;;;4.60;;
76818;SDS011;65772;51.096;17.006;2022-12-26T14:23:18;7.40;;;4.10;;
76818;SDS011;65772;51.096;17.006;2022-12-26T14:26:06;8.00;;;4.40;;
76818;SDS011;65772;51.096;17.006;2022-12-26T14:28:51;6.70;;;3.80;;
76818;SDS011;65772;51.096;17.006;2022-12-26T14:31:30;7.40;;;3.60;;
76818;SDS011;65772;51.096;17.006;2022-12-26T14:34:11;9.10;;;4.40;;
76818;SDS011;65772;51.096;17.006;2022-12-26T14:36:54;8.50;;;5.10;;
76818;SDS011;65772;51.096;17.006;2022-12-26T14:39:31;8.60;;;4.40;;
76818;SDS011;65772;51.096;17.006;2022-12-26T14:42:19;9.50;;;5.30;;
76818;SDS011;65772;51.096;17.006;2022-12-26T14:45:13;9.20;;;5.30;;
76818;SDS011;65772;51.096;17.006;2022-12-26T14:51:26;11.50;;;4.50;;
76818;SDS011;65772;51.096;17.006;2022-12-26T15:00:22;9.10;;;4.70;;
76818;SDS011;65772;51.096;17.006;2022-12-26T15:06:31;8.30;;;4.80;;
76818;SDS011;65772;51.096;17.006;2022-12-26T15:09:27;10.20;;;4.90;;
76818;SDS011;65772;51.096;17.006;2022-12-26T15:15:30;11.60;;;5.30;;
76818;SDS011;65772;51.096;17.006;2022-12-26T15:18:09;9.00;;;4.80;;
76818;SDS011;65772;51.096;17.006;2022-12-26T15:21:03;9.00;;;4.70;;
76818;SDS011;65772;51.096;17.006;2022-12-26T15:23:58;9.40;;;5.90;;
76818;SDS011;65772;51.096;17.006;2022-12-26T15:27:25;8.00;;;4.20;;
76818;SDS011;65772;51.096;17.006;2022-12-26T15:32:52;10.00;;;4.60;;
76818;SDS011;65772;51.096;17.006;2022-12-26T15:35:30;7.60;;;4.20;;
76818;SDS011;65772;51.096;17.006;2022-12-26T15:38:11;8.20;;;4.90;;
76818;SDS011;65772;51.096;17.006;2022-12-26T15:40:52;9.20;;;4.90;;
76818;SDS011;65772;51.096;17.006;2022-12-26T15:43:37;7.00;;;4.30;;
76818;SDS011;65772;51.096;17.006;2022-12-26T15:46:19;8.70;;;4.80;;
76818;SDS011;65772;51.096;17.006;2022-12-26T15:48:58;8.20;;;4.70;;
76818;SDS011;65772;51.096;17.006;2022-12-26T15:51:51;7.60;;;4.40;;
76818;SDS011;65772;51.096;17.006;2022-12-26T15:54:45;9.70;;;5.10;;
76818;SDS011;65772;51.096;17.006;2022-12-26T15:57:31;7.70;;;4.80;;
76818;SDS011;65772;51.096;17.006;2022-12-26T16:00:15;8.20;;;4.00;;
76818;SDS011;65772;51.096;17.006;2022-12-26T16:02:54;8.20;;;4.30;;
76818;SDS011;65772;51.096;17.006;2022-12-26T16:05:40;8.60;;;4.20;;
76818;SDS011;65772;51.096;17.006;2022-12-26T16:11:17;8.60;;;5.00;;
76818;SDS011;65772;51.096;17.006;2022-12-26T16:13:54;9.00;;;4.60;;
76818;SDS011;65772;51.096;17.006;2022-12-26T16:16:31;10.80;;;5.40;;
76818;SDS011;65772;51.096;17.006;2022-12-26T16:19:16;9.30;;;5.50;;
76818;SDS011;65772;51.096;17.006;2022-12-26T16:21:50;10.50;;;5.10;;
76818;SDS011;65772;51.096;17.006;2022-12-26T16:24:40;8.90;;;4.40;;
76818;SDS011;65772;51.096;17.006;2022-12-26T16:27:14;9.40;;;5.00;;
76818;SDS011;65772;51.096;17.006;2022-12-26T16:29:47;9.80;;;4.60;;
76818;SDS011;65772;51.096;17.006;2022-12-26T16:32:21;6.60;;;3.60;;
76818;SDS011;65772;51.096;17.006;2022-12-26T16:34:56;7.20;;;3.70;;
76818;SDS011;65772;51.096;17.006;2022-12-26T16:37:27;7.10;;;2.80;;
76818;SDS011;65772;51.096;17.006;2022-12-26T16:40:07;10.60;;;3.90;;
76818;SDS011;65772;51.096;17.006;2022-12-26T16:42:53;6.70;;;3.80;;
76818;SDS011;65772;51.096;17.006;2022-12-26T16:45:26;6.00;;;2.80;;
76818;SDS011;65772;51.096;17.006;2022-12-26T16:48:01;7.60;;;3.70;;
76818;SDS011;65772;51.096;17.006;2022-12-26T16:50:36;6.60;;;2.90;;
76818;SDS011;65772;51.096;17.006;2022-12-26T16:53:16;6.40;;;3.10;;